createdAt,value
2017-05-30T00:00:43.328Z,55.70
2017-05-30T00:03:11.574Z,55.60
2017-05-30T00:05:39.851Z,55.80
2017-05-30T00:08:08.104Z,55.30
2017-05-30T00:10:36.374Z,55.50
2017-05-30T00:13:04.619Z,55.20
2017-05-30T00:15:32.883Z,54.80
2017-05-30T00:18:01.132Z,54.40
2017-05-30T00:20:29.399Z,53.80
2017-05-30T00:22:57.647Z,53.80
2017-05-30T00:25:25.910Z,53.90
2017-05-30T00:27:54.160Z,53.70
2017-05-30T00:30:22.435Z,53.80
2017-05-30T00:32:50.675Z,53.80
2017-05-30T00:35:18.955Z,53.60
2017-05-30T00:37:47.203Z,53.90
2017-05-30T00:40:15.451Z,53.50
2017-05-30T00:42:43.720Z,53.00
2017-05-30T00:45:11.974Z,52.60
2017-05-30T00:47:40.245Z,52.50
2017-05-30T00:50:08.486Z,53.00
2017-05-30T00:52:36.760Z,52.40
2017-05-30T00:55:05.007Z,52.40
2017-05-30T00:57:33.278Z,52.30
2017-05-30T01:00:01.527Z,53.00
2017-05-30T01:02:29.794Z,52.30
2017-05-30T01:04:58.041Z,51.90
2017-05-30T01:07:26.307Z,52.60
2017-05-30T01:09:54.554Z,53.30
2017-05-30T01:12:22.830Z,53.50
2017-05-30T01:14:51.083Z,53.50
2017-05-30T01:17:19.331Z,54.00
2017-05-30T01:19:47.594Z,53.60
2017-05-30T01:22:15.836Z,53.40
2017-05-30T01:24:44.101Z,53.50
2017-05-30T01:27:12.355Z,53.20
2017-05-30T01:29:40.629Z,53.30
2017-05-30T01:32:08.899Z,53.30
2017-05-30T01:34:37.167Z,53.50
2017-05-30T01:37:05.415Z,53.90
2017-05-30T01:39:33.679Z,53.90
2017-05-30T01:42:01.919Z,54.20
2017-05-30T01:44:30.183Z,54.50
2017-05-30T01:46:57.674Z,54.50
2017-05-30T01:49:25.924Z,55.20
2017-05-30T01:51:54.187Z,55.40
2017-05-30T01:54:22.435Z,55.60
2017-05-30T01:56:50.699Z,55.80
2017-05-30T01:59:18.948Z,56.10
2017-05-30T02:01:47.212Z,56.40
2017-05-30T02:04:15.460Z,56.50
2017-05-30T02:06:43.728Z,56.60
2017-05-30T02:09:11.971Z,56.60
2017-05-30T02:11:40.234Z,56.70
2017-05-30T02:14:08.475Z,56.70
2017-05-30T02:16:36.813Z,56.70
2017-05-30T02:19:05.060Z,56.90
2017-05-30T02:21:33.322Z,57.00
2017-05-30T02:24:01.571Z,56.90
2017-05-30T02:26:29.827Z,56.80
2017-05-30T02:28:58.093Z,57.00
2017-05-30T02:31:26.346Z,56.70
2017-05-30T02:33:54.606Z,56.80
2017-05-30T02:36:22.855Z,56.30
2017-05-30T02:38:51.115Z,56.40
2017-05-30T02:41:19.360Z,56.30
2017-05-30T02:43:47.648Z,56.00
2017-05-30T02:46:15.893Z,55.80
2017-05-30T02:48:44.211Z,55.60
2017-05-30T02:51:12.436Z,55.50
2017-05-30T02:53:40.683Z,55.60
2017-05-30T02:56:08.948Z,55.80
2017-05-30T02:58:37.193Z,56.30
2017-05-30T03:01:05.466Z,55.80
2017-05-30T03:03:33.710Z,56.00
2017-05-30T03:06:01.976Z,56.30
2017-05-30T03:08:30.228Z,56.30
2017-05-30T03:10:58.490Z,56.40
2017-05-30T03:13:26.742Z,56.40
2017-05-30T03:15:55.009Z,56.20
2017-05-30T03:18:23.255Z,56.40
2017-05-30T03:20:51.539Z,56.60
2017-05-30T03:23:19.789Z,56.70
2017-05-30T03:25:48.042Z,56.40
2017-05-30T03:28:16.318Z,56.40
2017-05-30T03:30:44.564Z,56.40
2017-05-30T03:33:12.827Z,56.70
2017-05-30T03:35:41.078Z,56.40
2017-05-30T03:38:09.338Z,56.40
2017-05-30T03:40:37.580Z,56.40
2017-05-30T03:43:05.847Z,56.40
2017-05-30T03:45:34.091Z,56.20
2017-05-30T03:48:02.367Z,56.20
2017-05-30T03:50:30.616Z,56.20
2017-05-30T03:52:58.899Z,56.20
2017-05-30T03:55:27.143Z,56.30
2017-05-30T03:57:55.387Z,56.30
2017-05-30T04:00:23.651Z,56.50
2017-05-30T04:02:51.892Z,56.50
2017-05-30T04:05:20.160Z,56.70
2017-05-30T04:07:48.404Z,56.80
2017-05-30T04:10:16.667Z,56.80
2017-05-30T04:12:44.906Z,56.80
2017-05-30T04:15:13.171Z,56.80
2017-05-30T04:17:41.415Z,56.60
2017-05-30T04:20:09.675Z,56.70
2017-05-30T04:22:37.919Z,56.90
2017-05-30T04:25:06.158Z,57.00
2017-05-30T04:27:33.666Z,56.90
2017-05-30T04:30:01.915Z,56.80
2017-05-30T04:32:30.175Z,57.00
2017-05-30T04:34:58.421Z,56.70
2017-05-30T04:37:26.698Z,56.60
2017-05-30T04:39:54.947Z,56.60
2017-05-30T04:42:23.230Z,56.80
2017-05-30T04:44:51.478Z,57.10
2017-05-30T04:47:19.723Z,57.40
2017-05-30T04:49:47.979Z,57.50
2017-05-30T04:52:16.219Z,57.50
2017-05-30T04:54:44.481Z,57.50
2017-05-30T04:57:12.735Z,57.70
2017-05-30T04:59:41.003Z,65.60
2017-05-30T05:02:09.249Z,57.50
2017-05-30T05:04:37.510Z,57.60
2017-05-30T05:07:05.756Z,58.10
2017-05-30T05:09:34.021Z,58.10
2017-05-30T05:12:02.270Z,58.30
2017-05-30T05:14:30.527Z,58.20
2017-05-30T05:16:58.771Z,57.70
2017-05-30T05:19:27.051Z,58.30
2017-05-30T05:21:55.295Z,56.90
2017-05-30T05:24:23.552Z,56.40
2017-05-30T05:26:51.827Z,56.20
2017-05-30T05:29:20.068Z,56.20
2017-05-30T05:31:48.739Z,55.50
2017-05-30T05:34:16.991Z,55.30
2017-05-30T05:36:45.257Z,55.20
2017-05-30T05:39:13.505Z,54.30
2017-05-30T05:41:41.770Z,54.20
2017-05-30T05:44:10.020Z,54.20
2017-05-30T05:46:38.287Z,53.80
2017-05-30T05:49:06.546Z,53.50
2017-05-30T05:51:34.815Z,53.50
2017-05-30T05:54:03.069Z,53.10
2017-05-30T05:56:31.329Z,52.70
2017-05-30T05:58:59.601Z,51.80
2017-05-30T06:01:27.859Z,51.20
2017-05-30T06:03:56.131Z,50.60
2017-05-30T06:06:24.374Z,49.20
2017-05-30T06:08:52.655Z,48.20
2017-05-30T06:11:22.059Z,47.30
2017-05-30T06:13:50.314Z,46.30
2017-05-30T06:16:18.563Z,45.70
2017-05-30T06:18:46.830Z,46.20
2017-05-30T06:21:15.074Z,45.60
2017-05-30T06:23:43.323Z,44.50
2017-05-30T06:26:11.582Z,43.30
2017-05-30T06:28:39.827Z,42.20
2017-05-30T06:31:08.098Z,42.40
2017-05-30T06:33:36.343Z,42.70
2017-05-30T06:36:04.609Z,42.10
2017-05-30T06:38:32.867Z,41.40
2017-05-30T06:41:01.145Z,41.30
2017-05-30T06:43:29.408Z,42.40
2017-05-30T06:45:57.684Z,42.30
2017-05-30T06:48:25.935Z,42.90
2017-05-30T06:50:54.199Z,43.30
2017-05-30T06:53:22.483Z,43.10
2017-05-30T06:55:50.759Z,43.80
2017-05-30T06:58:19.039Z,45.80
2017-05-30T07:00:47.299Z,47.30
2017-05-30T07:03:15.568Z,49.30
2017-05-30T07:05:43.820Z,50.20
2017-05-30T07:08:12.095Z,50.90
2017-05-30T07:10:40.348Z,52.00
2017-05-30T07:13:08.623Z,53.20
2017-05-30T07:15:36.878Z,54.00
2017-05-30T07:18:05.145Z,54.70
2017-05-30T07:20:33.414Z,55.10
2017-05-30T07:23:01.678Z,55.50
2017-05-30T07:25:29.952Z,55.90
2017-05-30T07:27:58.210Z,56.60
2017-05-30T07:30:26.486Z,57.30
2017-05-30T07:32:54.743Z,57.50
2017-05-30T07:35:23.012Z,57.20
2017-05-30T07:37:51.263Z,57.40
2017-05-30T07:40:19.515Z,57.70
2017-05-30T07:42:47.845Z,57.10
2017-05-30T07:45:16.067Z,56.80
2017-05-30T07:47:44.338Z,56.40
2017-05-30T07:50:12.595Z,56.30
2017-05-30T07:52:40.876Z,56.40
2017-05-30T07:55:09.140Z,56.60
2017-05-30T07:57:37.411Z,56.00
2017-05-30T08:00:05.662Z,56.10
2017-05-30T08:02:33.934Z,56.20
2017-05-30T08:05:02.191Z,56.50
2017-05-30T08:07:30.463Z,56.70
2017-05-30T08:09:58.721Z,56.80
2017-05-30T08:12:26.987Z,56.90
2017-05-30T08:14:55.263Z,57.20
2017-05-30T08:17:23.518Z,57.30
2017-05-30T08:19:51.792Z,56.20
2017-05-30T08:22:20.042Z,54.90
2017-05-30T08:24:48.306Z,53.10
2017-05-30T08:27:16.584Z,51.30
2017-05-30T08:29:44.855Z,49.20
2017-05-30T08:32:13.106Z,48.90
2017-05-30T08:34:41.394Z,48.80
2017-05-30T08:37:09.669Z,49.60
2017-05-30T08:39:37.951Z,50.50
2017-05-30T08:42:06.216Z,51.80
2017-05-30T08:44:34.491Z,52.00
2017-05-30T08:47:02.743Z,50.30
2017-05-30T08:49:31.026Z,47.20
2017-05-30T08:51:59.278Z,45.30
2017-05-30T08:54:27.522Z,45.50
2017-05-30T08:56:55.794Z,45.40
2017-05-30T08:59:24.042Z,46.30
2017-05-30T09:01:52.311Z,47.20
2017-05-30T09:04:20.799Z,47.90
2017-05-30T09:06:49.075Z,49.00
2017-05-30T09:09:17.335Z,48.70
2017-05-30T09:11:45.602Z,46.80
2017-05-30T09:14:13.867Z,43.40
2017-05-30T09:16:42.154Z,41.10
2017-05-30T09:19:10.416Z,42.90
2017-05-30T09:21:38.711Z,44.90
2017-05-30T09:24:06.996Z,45.60
2017-05-30T09:26:35.262Z,45.80
2017-05-30T09:29:03.536Z,45.40
2017-05-30T09:31:31.799Z,44.40
2017-05-30T09:34:00.075Z,42.00
2017-05-30T09:36:28.328Z,40.60
2017-05-30T09:38:56.630Z,40.80
2017-05-30T09:41:24.884Z,39.90
2017-05-30T09:43:53.151Z,39.30
2017-05-30T09:46:21.542Z,41.00
2017-05-30T09:48:49.815Z,40.50
2017-05-30T09:51:18.072Z,40.30
2017-05-30T09:53:46.359Z,39.20
2017-05-30T09:56:14.663Z,37.90
2017-05-30T09:58:42.919Z,37.00
2017-05-30T10:01:11.193Z,35.50
2017-05-30T10:03:39.442Z,37.70
2017-05-30T10:06:07.738Z,38.70
2017-05-30T10:08:35.987Z,37.80
2017-05-30T10:11:04.258Z,37.20
2017-05-30T10:13:32.514Z,35.80
2017-05-30T10:16:00.784Z,35.50
2017-05-30T10:18:29.053Z,36.40
2017-05-30T10:20:57.323Z,37.50
2017-05-30T10:23:25.575Z,38.70
2017-05-30T10:25:53.846Z,35.60
2017-05-30T10:28:22.101Z,33.90
2017-05-30T10:30:50.358Z,32.60
2017-05-30T10:33:18.621Z,32.40
2017-05-30T10:35:46.890Z,32.70
2017-05-30T10:38:15.176Z,33.00
2017-05-30T10:40:43.434Z,33.00
2017-05-30T10:46:04.420Z,33.10
2017-05-30T10:48:32.699Z,33.80
2017-05-30T10:51:00.955Z,32.40
2017-05-30T10:53:29.239Z,31.30
2017-05-30T10:55:57.492Z,31.60
2017-05-30T10:58:25.785Z,33.80
2017-05-30T11:00:54.051Z,33.50
2017-05-30T11:03:22.321Z,33.50
2017-05-30T11:05:50.582Z,36.20
2017-05-30T11:08:18.838Z,36.00
2017-05-30T11:10:47.135Z,37.40
2017-05-30T11:13:15.399Z,39.10
2017-05-30T11:15:43.675Z,40.30
2017-05-30T11:18:11.926Z,41.50
2017-05-30T11:20:40.199Z,42.70
2017-05-30T11:23:08.463Z,40.00
2017-05-30T11:25:36.746Z,39.90
2017-05-30T11:28:04.994Z,40.10
2017-05-30T11:30:33.267Z,40.20
2017-05-30T11:33:01.596Z,41.80
2017-05-30T11:35:29.842Z,40.40
2017-05-30T11:37:57.346Z,40.40
2017-05-30T11:40:25.608Z,42.90
2017-05-30T11:42:53.886Z,48.60
2017-05-30T11:45:22.135Z,55.10
2017-05-30T11:47:50.412Z,54.80
2017-05-30T11:50:18.659Z,54.70
2017-05-30T11:52:46.922Z,54.40
2017-05-30T11:55:15.171Z,54.70
2017-05-30T11:57:43.441Z,55.40
2017-05-30T12:00:11.728Z,54.60
2017-05-30T12:02:40.001Z,53.50
2017-05-30T12:05:08.246Z,54.90
2017-05-30T12:07:36.512Z,57.80
2017-05-30T12:10:04.756Z,58.00
2017-05-30T12:12:33.024Z,61.20
2017-05-30T12:15:01.272Z,63.70
2017-05-30T12:17:29.545Z,67.10
2017-05-30T12:19:57.798Z,68.30
2017-05-30T12:22:26.043Z,66.50
2017-05-30T12:24:54.314Z,68.00
2017-05-30T12:27:22.559Z,68.50
2017-05-30T12:29:50.826Z,70.40
2017-05-30T12:32:19.074Z,71.10
2017-05-30T12:34:47.347Z,76.30
2017-05-30T12:37:15.607Z,73.10
2017-05-30T12:39:43.878Z,74.20
2017-05-30T12:42:12.124Z,75.20
2017-05-30T12:44:40.391Z,75.70
2017-05-30T12:47:08.644Z,77.10
2017-05-30T12:49:36.920Z,77.00
2017-05-30T12:52:05.184Z,80.00
2017-05-30T12:54:33.454Z,80.40
2017-05-30T12:57:01.705Z,80.10
2017-05-30T12:59:29.982Z,78.90
2017-05-30T13:01:58.238Z,79.30
2017-05-30T13:04:26.526Z,78.90
2017-05-30T13:06:54.786Z,80.10
2017-05-30T13:09:23.039Z,76.90
2017-05-30T13:11:51.307Z,76.70
2017-05-30T13:14:19.564Z,77.80
2017-05-30T13:16:47.847Z,79.10
2017-05-30T13:19:16.099Z,75.70
2017-05-30T13:21:44.372Z,76.80
2017-05-30T13:24:12.620Z,77.60
2017-05-30T13:26:40.887Z,77.40
2017-05-30T13:29:09.136Z,77.20
2017-05-30T13:31:37.400Z,79.40
2017-05-30T13:34:05.642Z,80.30
2017-05-30T13:36:33.926Z,78.00
2017-05-30T13:39:02.186Z,79.40
2017-05-30T13:41:30.447Z,79.50
2017-05-30T13:43:58.718Z,78.40
2017-05-30T13:46:26.976Z,76.60
2017-05-30T13:48:55.242Z,76.10
2017-05-30T13:51:23.497Z,75.00
2017-05-30T13:53:51.786Z,73.50
2017-05-30T13:56:20.026Z,72.60
2017-05-30T13:58:48.287Z,72.20
2017-05-30T14:01:16.534Z,69.20
2017-05-30T14:03:44.817Z,67.30
2017-05-30T14:06:13.069Z,61.10
2017-05-30T14:08:41.331Z,58.80
2017-05-30T14:11:09.631Z,56.40
2017-05-30T14:13:37.882Z,55.60
2017-05-30T14:16:06.152Z,55.80
2017-05-30T14:18:34.402Z,56.30
2017-05-30T14:21:02.659Z,56.30
2017-05-30T14:23:30.919Z,58.30
2017-05-30T14:25:59.179Z,59.80
2017-05-30T14:28:27.424Z,62.90
2017-05-30T14:30:55.688Z,64.70
2017-05-30T14:33:23.935Z,65.70
2017-05-30T14:35:52.193Z,66.80
2017-05-30T14:38:20.463Z,68.60
2017-05-30T14:40:48.716Z,70.60
2017-05-30T14:43:16.999Z,72.20
2017-05-30T14:45:45.248Z,73.60
2017-05-30T14:48:13.526Z,74.30
2017-05-30T14:50:41.799Z,75.20
2017-05-30T14:53:10.077Z,76.10
2017-05-30T14:55:38.332Z,76.50
2017-05-30T14:58:06.599Z,75.50
2017-05-30T15:00:34.842Z,72.70
2017-05-30T15:03:03.098Z,69.20
2017-05-30T15:05:31.375Z,66.50
2017-05-30T15:07:59.636Z,63.50
2017-05-30T15:10:27.923Z,61.70
2017-05-30T15:12:56.174Z,61.50
2017-05-30T15:15:24.438Z,61.20
2017-05-30T15:17:52.697Z,63.60
2017-05-30T15:20:21.010Z,64.00
2017-05-30T15:22:49.283Z,62.50
2017-05-30T15:25:17.551Z,64.20
2017-05-30T15:27:45.799Z,64.00
2017-05-30T15:30:14.083Z,65.90
2017-05-30T15:32:42.340Z,66.60
2017-05-30T15:35:10.591Z,67.40
2017-05-30T15:37:38.859Z,67.00
2017-05-30T15:40:07.114Z,67.30
2017-05-30T15:42:35.389Z,67.50
2017-05-30T15:45:03.642Z,65.80
2017-05-30T15:47:31.912Z,65.00
2017-05-30T15:50:00.190Z,63.70
2017-05-30T15:52:28.487Z,63.60
2017-05-30T15:54:56.740Z,64.00
2017-05-30T15:57:25.015Z,65.10
2017-05-30T15:59:53.263Z,64.60
2017-05-30T16:02:21.539Z,63.90
2017-05-30T16:04:49.799Z,64.30
2017-05-30T16:07:18.071Z,63.90
2017-05-30T16:09:45.553Z,63.90
2017-05-30T16:12:13.804Z,64.50
2017-05-30T16:14:42.077Z,66.10
2017-05-30T16:17:10.334Z,66.90
2017-05-30T16:19:38.602Z,66.00
2017-05-30T16:22:06.859Z,65.80
2017-05-30T16:24:35.119Z,66.10
2017-05-30T16:27:03.366Z,65.90
2017-05-30T16:29:31.648Z,66.40
2017-05-30T16:31:59.892Z,67.10
2017-05-30T16:34:28.158Z,67.30
2017-05-30T16:36:56.403Z,66.40
2017-05-30T16:39:24.707Z,66.30
2017-05-30T16:41:52.971Z,66.50
2017-05-30T16:44:21.224Z,67.40
2017-05-30T16:46:49.488Z,67.50
2017-05-30T16:49:17.750Z,67.10
2017-05-30T16:51:46.046Z,67.10
2017-05-30T16:54:14.291Z,67.90
2017-05-30T16:56:42.562Z,69.00
2017-05-30T16:59:10.810Z,70.10
2017-05-30T17:01:39.077Z,69.90
2017-05-30T17:04:07.339Z,69.80
2017-05-30T17:06:35.614Z,70.30
2017-05-30T17:09:03.859Z,72.60
2017-05-30T17:11:32.126Z,76.70
2017-05-30T17:14:00.383Z,79.20
2017-05-30T17:16:28.635Z,82.10
2017-05-30T17:18:56.902Z,83.10
2017-05-30T17:21:25.156Z,84.50
2017-05-30T17:23:53.422Z,85.70
2017-05-30T17:26:21.675Z,87.00
2017-05-30T17:28:49.955Z,86.30
2017-05-30T17:31:18.210Z,85.40
2017-05-30T17:33:46.471Z,83.40
2017-05-30T17:36:14.729Z,83.50
2017-05-30T17:38:43.011Z,82.90
2017-05-30T17:41:11.263Z,80.10
2017-05-30T17:43:39.536Z,81.60
2017-05-30T17:46:07.786Z,81.90
2017-05-30T17:48:36.047Z,81.40
2017-05-30T17:51:04.316Z,79.10
2017-05-30T17:53:32.596Z,79.30
2017-05-30T17:56:00.855Z,81.00
2017-05-30T17:58:29.098Z,82.20
2017-05-30T18:00:57.382Z,81.40
2017-05-30T18:03:25.651Z,81.70
2017-05-30T18:05:53.921Z,81.10
2017-05-30T18:08:22.228Z,81.60
2017-05-30T18:10:50.475Z,80.30
2017-05-30T18:13:18.735Z,82.10
2017-05-30T18:15:46.985Z,80.00
2017-05-30T18:18:15.254Z,79.50
2017-05-30T18:20:43.503Z,81.90
2017-05-30T18:23:11.775Z,82.10
2017-05-30T18:25:40.028Z,80.70
2017-05-30T18:28:08.299Z,81.00
2017-05-30T18:30:36.559Z,81.10
2017-05-30T18:33:04.827Z,80.00
2017-05-30T18:35:33.075Z,80.50
2017-05-30T18:38:01.347Z,79.50
2017-05-30T18:40:29.599Z,79.30
2017-05-30T18:42:57.866Z,79.30
2017-05-30T18:45:26.131Z,80.50
2017-05-30T18:47:54.384Z,81.30
2017-05-30T18:50:22.653Z,81.00
2017-05-30T18:52:50.902Z,81.10
2017-05-30T18:55:19.182Z,81.10
2017-05-30T18:57:47.430Z,81.60
2017-05-30T19:00:14.938Z,81.50
2017-05-30T19:02:43.196Z,82.30
2017-05-30T19:05:11.473Z,81.80
2017-05-30T19:07:39.723Z,81.90
2017-05-30T19:10:07.994Z,81.80
2017-05-30T19:12:36.265Z,82.60
2017-05-30T19:15:04.522Z,82.80
2017-05-30T19:17:32.791Z,82.80
2017-05-30T19:20:01.044Z,83.70
2017-05-30T19:22:29.311Z,84.20
2017-05-30T19:24:57.569Z,84.00
2017-05-30T19:27:25.839Z,84.30
2017-05-30T19:29:54.090Z,84.50
2017-05-30T19:32:22.367Z,84.10
2017-05-30T19:34:50.611Z,84.70
2017-05-30T19:37:18.867Z,85.40
2017-05-30T19:39:47.144Z,84.60
2017-05-30T19:42:15.417Z,84.50
2017-05-30T19:44:43.929Z,84.70
2017-05-30T19:47:12.193Z,84.90
2017-05-30T19:49:40.459Z,84.50
2017-05-30T19:52:08.719Z,84.70
2017-05-30T19:54:36.987Z,85.90
2017-05-30T19:57:05.243Z,86.10
2017-05-30T19:59:33.513Z,85.30
2017-05-30T20:02:01.771Z,85.40
2017-05-30T20:04:30.043Z,84.70
2017-05-30T20:06:58.295Z,84.30
2017-05-30T20:09:26.579Z,85.90
2017-05-30T20:11:54.843Z,84.70
2017-05-30T20:14:23.103Z,85.00
2017-05-30T20:16:51.508Z,85.40
2017-05-30T20:19:19.797Z,84.30
2017-05-30T20:21:48.071Z,83.80
2017-05-30T20:24:16.326Z,83.10
2017-05-30T20:26:44.594Z,82.30
2017-05-30T20:29:12.842Z,81.10
2017-05-30T20:31:41.103Z,81.80
2017-05-30T20:34:09.355Z,82.70
2017-05-30T20:36:37.619Z,84.00
2017-05-30T20:39:05.878Z,84.00
2017-05-30T20:41:34.155Z,83.90
2017-05-30T20:44:02.407Z,83.70
2017-05-30T20:46:30.658Z,83.70
2017-05-30T20:48:58.975Z,83.60
2017-05-30T20:51:27.233Z,84.90
2017-05-30T20:53:55.504Z,85.30
2017-05-30T20:56:23.763Z,85.90
2017-05-30T20:58:52.035Z,86.50
2017-05-30T21:01:20.314Z,86.90
2017-05-30T21:03:48.597Z,86.80
2017-05-30T21:06:16.862Z,87.50
2017-05-30T21:08:45.140Z,87.50
2017-05-30T21:11:13.399Z,87.30
2017-05-30T21:13:41.676Z,87.00
2017-05-30T21:16:09.931Z,88.00
2017-05-30T21:18:38.209Z,88.60
2017-05-30T21:21:06.457Z,88.70
2017-05-30T21:23:34.715Z,90.10
2017-05-30T21:26:02.988Z,90.70
2017-05-30T21:28:31.246Z,91.20
2017-05-30T21:30:59.538Z,91.10
2017-05-30T21:33:27.794Z,91.80
2017-05-30T21:35:56.067Z,91.40
2017-05-30T21:38:23.610Z,91.40
2017-05-30T21:40:51.884Z,91.60
2017-05-30T21:43:20.255Z,90.10
2017-05-30T21:45:49.483Z,91.30
2017-05-30T21:48:17.745Z,92.10
2017-05-30T21:50:46.042Z,91.20
2017-05-30T21:53:14.315Z,91.20
2017-05-30T21:55:42.578Z,90.80
2017-05-30T21:58:10.851Z,91.10
2017-05-30T22:00:39.116Z,91.50
2017-05-30T22:03:07.383Z,92.10
2017-05-30T22:05:35.644Z,92.00
2017-05-30T22:08:03.915Z,91.90
2017-05-30T22:10:32.171Z,92.00
2017-05-30T22:13:00.443Z,92.30
2017-05-30T22:15:28.695Z,92.10
2017-05-30T22:17:56.973Z,91.20
2017-05-30T22:20:25.219Z,89.30
2017-05-30T22:22:53.488Z,85.60
2017-05-30T22:25:21.740Z,82.00
2017-05-30T22:27:49.990Z,81.90
2017-05-30T22:30:18.259Z,80.30
2017-05-30T22:32:46.506Z,79.10
2017-05-30T22:35:14.774Z,79.50
2017-05-30T22:37:43.023Z,80.10
2017-05-30T22:40:11.290Z,79.80
2017-05-30T22:42:39.536Z,80.00
2017-05-30T22:45:07.810Z,79.00
2017-05-30T22:47:36.067Z,79.00
2017-05-30T22:50:04.350Z,77.80
2017-05-30T22:52:32.598Z,74.40
2017-05-30T22:55:00.859Z,75.70
2017-05-30T22:57:29.127Z,76.20
2017-05-30T22:59:57.371Z,75.90
2017-05-30T23:02:24.883Z,75.70
2017-05-30T23:04:53.140Z,76.80
2017-05-30T23:07:21.407Z,77.10
2017-05-30T23:09:49.654Z,75.10
2017-05-30T23:12:17.926Z,74.70
2017-05-30T23:14:46.174Z,74.20
2017-05-30T23:17:14.435Z,74.70
2017-05-30T23:19:42.689Z,74.90
2017-05-30T23:22:10.952Z,77.10
2017-05-30T23:24:39.214Z,76.90
2017-05-30T23:27:07.479Z,75.90
2017-05-30T23:29:35.725Z,75.20
2017-05-30T23:32:03.971Z,74.60
2017-05-30T23:34:32.235Z,74.60
2017-05-30T23:37:00.484Z,73.80
2017-05-30T23:39:28.763Z,71.90
2017-05-30T23:41:57.016Z,72.30
2017-05-30T23:44:25.626Z,73.10
2017-05-30T23:46:54.175Z,74.60
2017-05-30T23:49:22.539Z,73.30
2017-05-30T23:51:50.789Z,74.90
2017-05-30T23:54:19.051Z,73.10
2017-05-30T23:56:47.306Z,73.80
2017-05-30T23:59:15.890Z,72.40
